sensor_id;sensor_type;location;lat;lon;timestamp;pressure;altitude;pressure_sealevel;temperature;humidity
31062;BME280;17724;53.546;9.974;2023-11-21T00:03:59;100961.47;;;9.42;100.00
31062;BME280;17724;53.546;9.974;2023-11-21T00:08:01;100975.34;;;9.35;100.00
31062;BME280;17724;53.546;9.974;2023-11-21T00:12:02;100964.56;;;9.17;100.00
31062;BME280;17724;53.546;9.974;2023-11-21T00:16:03;100977.78;;;9.20;100.00
31062;BME280;17724;53.546;9.974;2023-11-21T00:20:06;100989.47;;;9.27;100.00
31062;BME280;17724;53.546;9.974;2023-11-21T00:24:07;100988.72;;;9.32;100.00
31062;BME280;17724;53.546;9.974;2023-11-21T00:28:07;101001.19;;;9.23;100.00
31062;BME280;17724;53.546;9.974;2023-11-21T00:32:08;101001.03;;;8.89;100.00
31062;BME280;17724;53.546;9.974;2023-11-21T00:36:09;101005.47;;;8.90;100.00
31062;BME280;17724;53.546;9.974;2023-11-21T00:40:12;100993.91;;;8.76;100.00
31062;BME280;17724;53.546;9.974;2023-11-21T00:44:12;101015.28;;;8.74;100.00
31062;BME280;17724;53.546;9.974;2023-11-21T00:48:13;101006.44;;;8.72;100.00
31062;BME280;17724;53.546;9.974;2023-11-21T00:52:13;101029.56;;;8.64;100.00
31062;BME280;17724;53.546;9.974;2023-11-21T00:56:14;101028.25;;;8.79;100.00
31062;BME280;17724;53.546;9.974;2023-11-21T01:00:16;101042.56;;;8.69;100.00
31062;BME280;17724;53.546;9.974;2023-11-21T01:04:17;101052.94;;;8.67;100.00
31062;BME280;17724;53.546;9.974;2023-11-21T01:08:18;101061.53;;;8.59;100.00
31062;BME280;17724;53.546;9.974;2023-11-21T01:12:18;101069.88;;;8.52;100.00
31062;BME280;17724;53.546;9.974;2023-11-21T01:16:19;101075.00;;;8.49;100.00
31062;BME280;17724;53.546;9.974;2023-11-21T01:20:19;101083.09;;;8.55;100.00
31062;BME280;17724;53.546;9.974;2023-11-21T01:24:21;101099.03;;;8.35;100.00
31062;BME280;17724;53.546;9.974;2023-11-21T01:28:21;101104.44;;;8.53;100.00
31062;BME280;17724;53.546;9.974;2023-11-21T01:32:22;101101.66;;;8.30;100.00
31062;BME280;17724;53.546;9.974;2023-11-21T01:36:22;101105.44;;;8.29;100.00
31062;BME280;17724;53.546;9.974;2023-11-21T01:40:23;101114.03;;;8.32;100.00
31062;BME280;17724;53.546;9.974;2023-11-21T01:44:24;101123.66;;;8.23;100.00
31062;BME280;17724;53.546;9.974;2023-11-21T01:48:26;101123.56;;;8.30;100.00
31062;BME280;17724;53.546;9.974;2023-11-21T01:52:28;101129.38;;;8.22;100.00
31062;BME280;17724;53.546;9.974;2023-11-21T01:56:30;101122.22;;;8.21;100.00
31062;BME280;17724;53.546;9.974;2023-11-21T02:00:31;101132.59;;;8.19;100.00
31062;BME280;17724;53.546;9.974;2023-11-21T02:04:34;101137.75;;;7.97;100.00
31062;BME280;17724;53.546;9.974;2023-11-21T02:08:34;101140.13;;;7.93;100.00
31062;BME280;17724;53.546;9.974;2023-11-21T02:12:35;101152.44;;;8.02;100.00
31062;BME280;17724;53.546;9.974;2023-11-21T02:16:36;101157.72;;;8.15;100.00
31062;BME280;17724;53.546;9.974;2023-11-21T02:20:37;101161.13;;;7.99;100.00
31062;BME280;17724;53.546;9.974;2023-11-21T02:24:41;101165.25;;;7.90;100.00
31062;BME280;17724;53.546;9.974;2023-11-21T02:28:42;101176.53;;;8.12;100.00
31062;BME280;17724;53.546;9.974;2023-11-21T02:32:43;101189.13;;;8.13;100.00
31062;BME280;17724;53.546;9.974;2023-11-21T02:36:44;101190.34;;;8.17;100.00
31062;BME280;17724;53.546;9.974;2023-11-21T02:40:46;101197.59;;;8.11;100.00
31062;BME280;17724;53.546;9.974;2023-11-21T02:44:46;101199.22;;;8.01;100.00
31062;BME280;17724;53.546;9.974;2023-11-21T02:48:47;101204.03;;;7.87;100.00
31062;BME280;17724;53.546;9.974;2023-11-21T02:52:47;101208.69;;;7.86;100.00
31062;BME280;17724;53.546;9.974;2023-11-21T02:56:48;101209.66;;;7.92;100.00
31062;BME280;17724;53.546;9.974;2023-11-21T03:00:50;101214.91;;;7.94;100.00
31062;BME280;17724;53.546;9.974;2023-11-21T03:04:50;101216.91;;;8.17;100.00
31062;BME280;17724;53.546;9.974;2023-11-21T03:08:51;101208.13;;;7.96;100.00
31062;BME280;17724;53.546;9.974;2023-11-21T03:12:51;101215.56;;;8.07;100.00
31062;BME280;17724;53.546;9.974;2023-11-21T03:16:52;101224.91;;;8.18;100.00
31062;BME280;17724;53.546;9.974;2023-11-21T03:20:53;101221.59;;;8.28;100.00
31062;BME280;17724;53.546;9.974;2023-11-21T03:24:53;101242.25;;;8.12;100.00
31062;BME280;17724;53.546;9.974;2023-11-21T03:28:54;101249.38;;;8.31;100.00
31062;BME280;17724;53.546;9.974;2023-11-21T03:32:54;101249.56;;;8.18;100.00
31062;BME280;17724;53.546;9.974;2023-11-21T03:36:55;101254.00;;;8.01;100.00
31062;BME280;17724;53.546;9.974;2023-11-21T03:40:55;101257.88;;;8.11;100.00
31062;BME280;17724;53.546;9.974;2023-11-21T03:44:56;101263.88;;;8.02;100.00
31062;BME280;17724;53.546;9.974;2023-11-21T03:48:56;101266.16;;;8.23;100.00
31062;BME280;17724;53.546;9.974;2023-11-21T03:52:57;101270.75;;;8.11;100.00
31062;BME280;17724;53.546;9.974;2023-11-21T03:56:57;101290.44;;;8.01;100.00
31062;BME280;17724;53.546;9.974;2023-11-21T04:00:58;101295.84;;;7.89;100.00
31062;BME280;17724;53.546;9.974;2023-11-21T04:04:58;101289.47;;;7.96;100.00
31062;BME280;17724;53.546;9.974;2023-11-21T04:08:59;101303.50;;;8.18;100.00
31062;BME280;17724;53.546;9.974;2023-11-21T04:12:59;101304.97;;;8.02;100.00
31062;BME280;17724;53.546;9.974;2023-11-21T04:17:00;101323.75;;;8.17;100.00
31062;BME280;17724;53.546;9.974;2023-11-21T04:21:01;101320.00;;;8.29;100.00
31062;BME280;17724;53.546;9.974;2023-11-21T04:25:01;101330.59;;;8.26;100.00
31062;BME280;17724;53.546;9.974;2023-11-21T04:29:02;101336.25;;;8.31;100.00
31062;BME280;17724;53.546;9.974;2023-11-21T04:33:02;101345.22;;;8.20;100.00
31062;BME280;17724;53.546;9.974;2023-11-21T04:37:03;101340.66;;;8.13;100.00
31062;BME280;17724;53.546;9.974;2023-11-21T04:41:07;101356.19;;;8.20;100.00
31062;BME280;17724;53.546;9.974;2023-11-21T04:45:08;101354.34;;;8.13;100.00
31062;BME280;17724;53.546;9.974;2023-11-21T04:49:09;101360.75;;;8.26;100.00
31062;BME280;17724;53.546;9.974;2023-11-21T04:53:11;101368.22;;;8.19;100.00
31062;BME280;17724;53.546;9.974;2023-11-21T04:57:14;101370.34;;;8.35;100.00
31062;BME280;17724;53.546;9.974;2023-11-21T05:01:14;101376.81;;;8.59;100.00
31062;BME280;17724;53.546;9.974;2023-11-21T05:05:15;101375.00;;;8.34;100.00
31062;BME280;17724;53.546;9.974;2023-11-21T05:09:15;101380.78;;;8.08;100.00
31062;BME280;17724;53.546;9.974;2023-11-21T05:13:16;101385.50;;;8.19;100.00
31062;BME280;17724;53.546;9.974;2023-11-21T05:17:17;101395.00;;;8.17;100.00
31062;BME280;17724;53.546;9.974;2023-11-21T05:21:17;101394.53;;;8.20;100.00
31062;BME280;17724;53.546;9.974;2023-11-21T05:25:21;101408.28;;;8.38;100.00
31062;BME280;17724;53.546;9.974;2023-11-21T05:29:22;101412.97;;;8.31;100.00
31062;BME280;17724;53.546;9.974;2023-11-21T05:33:22;101413.28;;;8.41;100.00
31062;BME280;17724;53.546;9.974;2023-11-21T05:37:23;101418.06;;;8.27;100.00
31062;BME280;17724;53.546;9.974;2023-11-21T05:41:23;101422.47;;;8.28;100.00
31062;BME280;17724;53.546;9.974;2023-11-21T05:45:24;101435.41;;;8.21;100.00
31062;BME280;17724;53.546;9.974;2023-11-21T05:49:24;101439.94;;;8.34;100.00
31062;BME280;17724;53.546;9.974;2023-11-21T05:53:26;101457.50;;;8.26;100.00
31062;BME280;17724;53.546;9.974;2023-11-21T05:57:27;101455.72;;;8.38;100.00
31062;BME280;17724;53.546;9.974;2023-11-21T06:01:27;101468.84;;;8.30;100.00
31062;BME280;17724;53.546;9.974;2023-11-21T06:05:28;101473.78;;;8.46;100.00
31062;BME280;17724;53.546;9.974;2023-11-21T06:09:29;101478.38;;;8.46;100.00
31062;BME280;17724;53.546;9.974;2023-11-21T06:13:29;101483.53;;;8.42;100.00
31062;BME280;17724;53.546;9.974;2023-11-21T06:17:37;101488.63;;;8.32;100.00
31062;BME280;17724;53.546;9.974;2023-11-21T06:21:37;101502.72;;;8.35;100.00
31062;BME280;17724;53.546;9.974;2023-11-21T06:25:38;101514.13;;;8.32;100.00
31062;BME280;17724;53.546;9.974;2023-11-21T06:29:40;101515.53;;;8.42;100.00
31062;BME280;17724;53.546;9.974;2023-11-21T06:33:42;101519.81;;;8.37;100.00
31062;BME280;17724;53.546;9.974;2023-11-21T06:37:43;101525.50;;;8.36;100.00
31062;BME280;17724;53.546;9.974;2023-11-21T06:41:51;101533.00;;;8.22;100.00
31062;BME280;17724;53.546;9.974;2023-11-21T06:45:52;101543.84;;;8.35;100.00
31062;BME280;17724;53.546;9.974;2023-11-21T06:49:53;101544.97;;;8.53;100.00
31062;BME280;17724;53.546;9.974;2023-11-21T06:53:54;101548.19;;;8.50;100.00
31062;BME280;17724;53.546;9.974;2023-11-21T06:57:54;101543.53;;;8.50;100.00
31062;BME280;17724;53.546;9.974;2023-11-21T07:01:54;101563.47;;;8.32;100.00
31062;BME280;17724;53.546;9.974;2023-11-21T07:05:55;101560.81;;;8.51;100.00
31062;BME280;17724;53.546;9.974;2023-11-21T07:09:56;101567.97;;;8.52;100.00
31062;BME280;17724;53.546;9.974;2023-11-21T07:13:56;101569.47;;;8.48;100.00
31062;BME280;17724;53.546;9.974;2023-11-21T07:17:57;101564.53;;;8.38;100.00
31062;BME280;17724;53.546;9.974;2023-11-21T07:21:57;101601.50;;;8.54;100.00
31062;BME280;17724;53.546;9.974;2023-11-21T07:25:57;101611.69;;;8.65;100.00
31062;BME280;17724;53.546;9.974;2023-11-21T07:29:58;101624.19;;;8.61;100.00
31062;BME280;17724;53.546;9.974;2023-11-21T07:33:58;101624.81;;;8.38;100.00
31062;BME280;17724;53.546;9.974;2023-11-21T07:37:59;101628.97;;;8.66;100.00
31062;BME280;17724;53.546;9.974;2023-11-21T07:41:59;101635.81;;;8.56;100.00
31062;BME280;17724;53.546;9.974;2023-11-21T07:46:01;101639.75;;;8.67;100.00
31062;BME280;17724;53.546;9.974;2023-11-21T07:50:03;101644.09;;;8.75;100.00
31062;BME280;17724;53.546;9.974;2023-11-21T07:54:04;101643.59;;;8.59;100.00
31062;BME280;17724;53.546;9.974;2023-11-21T07:58:05;101652.66;;;8.60;100.00
31062;BME280;17724;53.546;9.974;2023-11-21T08:02:06;101651.47;;;8.49;100.00
31062;BME280;17724;53.546;9.974;2023-11-21T08:06:07;101665.03;;;8.69;100.00
31062;BME280;17724;53.546;9.974;2023-11-21T08:10:08;101664.63;;;8.66;100.00
31062;BME280;17724;53.546;9.974;2023-11-21T08:14:10;101668.88;;;8.61;100.00
31062;BME280;17724;53.546;9.974;2023-11-21T08:18:11;101673.72;;;8.66;100.00
31062;BME280;17724;53.546;9.974;2023-11-21T08:22:11;101678.19;;;8.60;100.00
31062;BME280;17724;53.546;9.974;2023-11-21T08:26:12;101684.91;;;8.39;100.00
31062;BME280;17724;53.546;9.974;2023-11-21T08:30:13;101682.84;;;8.60;100.00
31062;BME280;17724;53.546;9.974;2023-11-21T08:34:14;101694.59;;;8.67;100.00
31062;BME280;17724;53.546;9.974;2023-11-21T08:38:15;101699.50;;;8.83;100.00
31062;BME280;17724;53.546;9.974;2023-11-21T08:42:16;101710.38;;;8.72;100.00
31062;BME280;17724;53.546;9.974;2023-11-21T08:46:16;101718.38;;;8.73;100.00
31062;BME280;17724;53.546;9.974;2023-11-21T08:50:20;101717.41;;;8.61;100.00
31062;BME280;17724;53.546;9.974;2023-11-21T08:54:21;101730.34;;;8.54;100.00
31062;BME280;17724;53.546;9.974;2023-11-21T08:58:21;101739.91;;;8.70;100.00
31062;BME280;17724;53.546;9.974;2023-11-21T09:02:22;101759.09;;;8.70;100.00
31062;BME280;17724;53.546;9.974;2023-11-21T09:06:24;101761.75;;;8.58;100.00
31062;BME280;17724;53.546;9.974;2023-11-21T09:10:24;101764.78;;;8.75;100.00
31062;BME280;17724;53.546;9.974;2023-11-21T09:14:25;101766.72;;;8.68;100.00
31062;BME280;17724;53.546;9.974;2023-11-21T09:18:26;101769.97;;;8.58;100.00
31062;BME280;17724;53.546;9.974;2023-11-21T09:22:26;101777.13;;;8.91;100.00
31062;BME280;17724;53.546;9.974;2023-11-21T09:26:27;101786.59;;;8.63;100.00
31062;BME280;17724;53.546;9.974;2023-11-21T09:30:27;101781.00;;;8.45;100.00
31062;BME280;17724;53.546;9.974;2023-11-21T09:34:28;101789.34;;;8.63;100.00
31062;BME280;17724;53.546;9.974;2023-11-21T09:38:28;101792.25;;;8.68;100.00
31062;BME280;17724;53.546;9.974;2023-11-21T09:42:39;101816.38;;;8.53;100.00
31062;BME280;17724;53.546;9.974;2023-11-21T09:46:43;101820.63;;;8.49;100.00
31062;BME280;17724;53.546;9.974;2023-11-21T09:50:47;101818.41;;;8.71;100.00
31062;BME280;17724;53.546;9.974;2023-11-21T09:54:47;101822.81;;;8.72;100.00
31062;BME280;17724;53.546;9.974;2023-11-21T09:58:53;101833.25;;;8.56;100.00
31062;BME280;17724;53.546;9.974;2023-11-21T10:02:54;101830.75;;;8.86;100.00
31062;BME280;17724;53.546;9.974;2023-11-21T10:06:55;101832.91;;;8.78;100.00
31062;BME280;17724;53.546;9.974;2023-11-21T10:10:56;101837.34;;;8.79;100.00
31062;BME280;17724;53.546;9.974;2023-11-21T10:14:58;101831.44;;;9.07;100.00
31062;BME280;17724;53.546;9.974;2023-11-21T10:19:00;101842.13;;;9.15;100.00
31062;BME280;17724;53.546;9.974;2023-11-21T10:23:01;101839.78;;;8.94;100.00
31062;BME280;17724;53.546;9.974;2023-11-21T10:27:04;101842.28;;;8.95;100.00
31062;BME280;17724;53.546;9.974;2023-11-21T10:31:07;101855.06;;;9.08;100.00
31062;BME280;17724;53.546;9.974;2023-11-21T10:35:08;101849.72;;;9.13;100.00
31062;BME280;17724;53.546;9.974;2023-11-21T10:39:16;101865.09;;;9.21;100.00
31062;BME280;17724;53.546;9.974;2023-11-21T10:43:18;101874.38;;;8.95;100.00
31062;BME280;17724;53.546;9.974;2023-11-21T10:47:19;101870.28;;;9.04;100.00
31062;BME280;17724;53.546;9.974;2023-11-21T10:51:20;101872.19;;;9.03;100.00
31062;BME280;17724;53.546;9.974;2023-11-21T10:55:21;101879.75;;;9.08;100.00
31062;BME280;17724;53.546;9.974;2023-11-21T10:59:22;101875.94;;;9.09;100.00
31062;BME280;17724;53.546;9.974;2023-11-21T11:03:25;101887.66;;;8.98;100.00
31062;BME280;17724;53.546;9.974;2023-11-21T11:07:27;101881.63;;;8.82;100.00
31062;BME280;17724;53.546;9.974;2023-11-21T11:11:28;101875.66;;;9.17;100.00
31062;BME280;17724;53.546;9.974;2023-11-21T11:15:30;101895.75;;;9.18;100.00
31062;BME280;17724;53.546;9.974;2023-11-21T11:19:31;101888.69;;;8.97;100.00
31062;BME280;17724;53.546;9.974;2023-11-21T11:32:15;101893.41;;;9.46;100.00
31062;BME280;17724;53.546;9.974;2023-11-21T11:41:01;101912.16;;;9.74;97.65
31062;BME280;17724;53.546;9.974;2023-11-21T11:45:17;101913.84;;;9.50;96.25
31062;BME280;17724;53.546;9.974;2023-11-21T11:49:28;101910.94;;;9.70;96.89
31062;BME280;17724;53.546;9.974;2023-11-21T11:53:35;101906.88;;;9.73;95.45
31062;BME280;17724;53.546;9.974;2023-11-21T11:57:37;101906.00;;;9.79;96.28
31062;BME280;17724;53.546;9.974;2023-11-21T12:01:45;101899.88;;;9.52;95.06
31062;BME280;17724;53.546;9.974;2023-11-21T12:05:46;101904.13;;;9.73;94.24
31062;BME280;17724;53.546;9.974;2023-11-21T12:09:47;101917.00;;;9.54;93.39
31062;BME280;17724;53.546;9.974;2023-11-21T12:13:48;101923.88;;;9.63;93.17
31062;BME280;17724;53.546;9.974;2023-11-21T12:17:49;101932.63;;;9.78;93.65
31062;BME280;17724;53.546;9.974;2023-11-21T12:21:51;101953.44;;;9.68;92.90
31062;BME280;17724;53.546;9.974;2023-11-21T12:25:52;101961.31;;;9.57;92.12
31062;BME280;17724;53.546;9.974;2023-11-21T12:29:53;101966.72;;;9.46;92.32
31062;BME280;17724;53.546;9.974;2023-11-21T12:33:56;101966.06;;;9.44;91.94
31062;BME280;17724;53.546;9.974;2023-11-21T12:37:57;101980.19;;;9.16;91.56
31062;BME280;17724;53.546;9.974;2023-11-21T12:41:59;101983.56;;;9.18;92.49
31062;BME280;17724;53.546;9.974;2023-11-21T12:46:07;101982.97;;;9.09;93.41
31062;BME280;17724;53.546;9.974;2023-11-21T12:50:09;101984.16;;;9.26;94.12
31062;BME280;17724;53.546;9.974;2023-11-21T12:54:15;101982.13;;;9.08;93.94
31062;BME280;17724;53.546;9.974;2023-11-21T12:58:17;101989.09;;;9.11;95.41
31062;BME280;17724;53.546;9.974;2023-11-21T13:02:20;102008.50;;;9.09;94.80
31062;BME280;17724;53.546;9.974;2023-11-21T13:06:21;101998.72;;;9.27;97.08
31062;BME280;17724;53.546;9.974;2023-11-21T13:10:26;102012.03;;;9.23;96.38
31062;BME280;17724;53.546;9.974;2023-11-21T13:14:31;102006.06;;;8.95;96.92
31062;BME280;17724;53.546;9.974;2023-11-21T13:18:32;102021.66;;;9.01;96.98
31062;BME280;17724;53.546;9.974;2023-11-21T13:22:32;102029.47;;;8.97;97.93
31062;BME280;17724;53.546;9.974;2023-11-21T13:26:33;102031.59;;;9.02;99.35
31062;BME280;17724;53.546;9.974;2023-11-21T13:30:33;102031.00;;;8.86;99.46
31062;BME280;17724;53.546;9.974;2023-11-21T13:34:34;102035.53;;;9.12;100.00
31062;BME280;17724;53.546;9.974;2023-11-21T13:38:36;102043.75;;;9.12;99.89
31062;BME280;17724;53.546;9.974;2023-11-21T13:42:42;102044.72;;;8.86;99.60
31062;BME280;17724;53.546;9.974;2023-11-21T13:46:43;102051.41;;;9.04;100.00
31062;BME280;17724;53.546;9.974;2023-11-21T13:50:46;102056.47;;;9.07;99.88
31062;BME280;17724;53.546;9.974;2023-11-21T13:54:59;102058.13;;;9.08;99.21
31062;BME280;17724;53.546;9.974;2023-11-21T13:59:02;102069.19;;;8.95;97.40
31062;BME280;17724;53.546;9.974;2023-11-21T14:03:17;102077.00;;;8.84;97.59
31062;BME280;17724;53.546;9.974;2023-11-21T14:07:23;102075.56;;;8.75;97.33
31062;BME280;17724;53.546;9.974;2023-11-21T14:11:35;102074.06;;;8.73;97.56
31062;BME280;17724;53.546;9.974;2023-11-21T14:15:41;102078.31;;;8.75;98.06
31062;BME280;17724;53.546;9.974;2023-11-21T14:19:46;102092.06;;;8.62;96.79
31062;BME280;17724;53.546;9.974;2023-11-21T14:23:47;102089.94;;;8.71;98.20
31062;BME280;17724;53.546;9.974;2023-11-21T14:27:48;102110.81;;;8.65;98.00
31062;BME280;17724;53.546;9.974;2023-11-21T14:31:49;102108.31;;;8.50;98.28
31062;BME280;17724;53.546;9.974;2023-11-21T14:35:51;102119.69;;;8.60;98.89
31062;BME280;17724;53.546;9.974;2023-11-21T14:39:52;102122.44;;;8.47;98.25
31062;BME280;17724;53.546;9.974;2023-11-21T14:43:52;102126.00;;;8.61;99.28
31062;BME280;17724;53.546;9.974;2023-11-21T14:47:54;102128.97;;;8.66;99.18
31062;BME280;17724;53.546;9.974;2023-11-21T14:52:07;102133.59;;;8.52;97.71
31062;BME280;17724;53.546;9.974;2023-11-21T14:56:22;102150.47;;;8.49;97.42
31062;BME280;17724;53.546;9.974;2023-11-21T15:00:35;102161.88;;;8.46;96.99
31062;BME280;17724;53.546;9.974;2023-11-21T15:04:35;102152.13;;;8.24;97.15
31062;BME280;17724;53.546;9.974;2023-11-21T15:08:37;102164.78;;;8.31;96.77
31062;BME280;17724;53.546;9.974;2023-11-21T15:12:37;102189.28;;;8.53;95.14
31062;BME280;17724;53.546;9.974;2023-11-21T15:16:40;102194.78;;;8.53;96.10
31062;BME280;17724;53.546;9.974;2023-11-21T15:20:43;102205.97;;;8.64;95.62
31062;BME280;17724;53.546;9.974;2023-11-21T15:24:45;102205.75;;;8.39;95.67
31062;BME280;17724;53.546;9.974;2023-11-21T15:28:47;102205.38;;;7.81;99.07
31062;BME280;17724;53.546;9.974;2023-11-21T15:32:47;102199.53;;;7.43;100.00
31062;BME280;17724;53.546;9.974;2023-11-21T15:36:48;102202.50;;;7.48;100.00
31062;BME280;17724;53.546;9.974;2023-11-21T15:40:53;102214.56;;;7.60;100.00
31062;BME280;17724;53.546;9.974;2023-11-21T15:44:54;102221.19;;;7.79;100.00
31062;BME280;17724;53.546;9.974;2023-11-21T15:48:55;102222.03;;;7.80;100.00
31062;BME280;17724;53.546;9.974;2023-11-21T15:52:55;102227.97;;;7.90;100.00
31062;BME280;17724;53.546;9.974;2023-11-21T15:56:56;102243.97;;;7.86;100.00
31062;BME280;17724;53.546;9.974;2023-11-21T16:01:00;102236.84;;;8.05;100.00
31062;BME280;17724;53.546;9.974;2023-11-21T16:05:01;102248.44;;;8.07;100.00
31062;BME280;17724;53.546;9.974;2023-11-21T16:09:05;102264.28;;;8.12;100.00
31062;BME280;17724;53.546;9.974;2023-11-21T16:13:06;102273.47;;;7.98;100.00
31062;BME280;17724;53.546;9.974;2023-11-21T16:17:09;102277.47;;;7.88;100.00
31062;BME280;17724;53.546;9.974;2023-11-21T16:21:11;102281.53;;;7.99;100.00
31062;BME280;17724;53.546;9.974;2023-11-21T16:25:12;102289.59;;;8.14;100.00
31062;BME280;17724;53.546;9.974;2023-11-21T16:29:14;102305.44;;;8.32;100.00
31062;BME280;17724;53.546;9.974;2023-11-21T16:33:15;102306.44;;;8.18;100.00
31062;BME280;17724;53.546;9.974;2023-11-21T16:37:15;102316.66;;;8.37;100.00
31062;BME280;17724;53.546;9.974;2023-11-21T16:41:16;102320.81;;;8.26;100.00
31062;BME280;17724;53.546;9.974;2023-11-21T16:45:17;102326.06;;;8.14;100.00
31062;BME280;17724;53.546;9.974;2023-11-21T16:49:18;102339.13;;;8.19;100.00
31062;BME280;17724;53.546;9.974;2023-11-21T16:53:19;102334.94;;;8.23;100.00
31062;BME280;17724;53.546;9.974;2023-11-21T16:57:20;102352.19;;;8.17;100.00
31062;BME280;17724;53.546;9.974;2023-11-21T17:01:20;102349.19;;;8.05;100.00
31062;BME280;17724;53.546;9.974;2023-11-21T17:05:21;102354.53;;;8.20;100.00
31062;BME280;17724;53.546;9.974;2023-11-21T17:09:21;102348.00;;;8.21;100.00
31062;BME280;17724;53.546;9.974;2023-11-21T17:13:22;102350.09;;;8.26;100.00
31062;BME280;17724;53.546;9.974;2023-11-21T17:17:22;102364.56;;;8.00;100.00
31062;BME280;17724;53.546;9.974;2023-11-21T17:21:23;102384.72;;;7.57;100.00
31062;BME280;17724;53.546;9.974;2023-11-21T17:25:24;102408.25;;;7.24;100.00
31062;BME280;17724;53.546;9.974;2023-11-21T17:29:25;102416.91;;;7.06;100.00
31062;BME280;17724;53.546;9.974;2023-11-21T17:33:26;102410.28;;;7.15;100.00
31062;BME280;17724;53.546;9.974;2023-11-21T17:37:27;102416.78;;;7.14;100.00
31062;BME280;17724;53.546;9.974;2023-11-21T17:41:27;102404.16;;;7.34;100.00
31062;BME280;17724;53.546;9.974;2023-11-21T17:45:27;102424.78;;;7.65;100.00
31062;BME280;17724;53.546;9.974;2023-11-21T17:49:31;102428.03;;;7.47;100.00
31062;BME280;17724;53.546;9.974;2023-11-21T17:53:32;102443.78;;;7.67;100.00
31062;BME280;17724;53.546;9.974;2023-11-21T17:57:32;102450.41;;;7.79;100.00
31062;BME280;17724;53.546;9.974;2023-11-21T18:01:37;102454.44;;;7.83;99.31
31062;BME280;17724;53.546;9.974;2023-11-21T18:05:37;102467.31;;;7.61;97.57
31062;BME280;17724;53.546;9.974;2023-11-21T18:09:38;102466.69;;;7.59;99.53
31062;BME280;17724;53.546;9.974;2023-11-21T18:13:39;102475.63;;;7.46;99.21
31062;BME280;17724;53.546;9.974;2023-11-21T18:17:40;102480.16;;;7.60;99.91
31062;BME280;17724;53.546;9.974;2023-11-21T18:21:41;102472.63;;;7.62;100.00
31062;BME280;17724;53.546;9.974;2023-11-21T18:25:42;102484.59;;;7.89;100.00
31062;BME280;17724;53.546;9.974;2023-11-21T18:29:43;102501.47;;;7.86;100.00
31062;BME280;17724;53.546;9.974;2023-11-21T18:33:44;102504.28;;;7.72;100.00
31062;BME280;17724;53.546;9.974;2023-11-21T18:37:44;102487.75;;;7.58;100.00
31062;BME280;17724;53.546;9.974;2023-11-21T18:41:46;102483.13;;;7.16;96.61
31062;BME280;17724;53.546;9.974;2023-11-21T18:45:47;102515.50;;;7.34;99.10
31062;BME280;17724;53.546;9.974;2023-11-21T18:49:47;102521.75;;;7.71;100.00
31062;BME280;17724;53.546;9.974;2023-11-21T18:53:48;102523.84;;;7.69;98.73
31062;BME280;17724;53.546;9.974;2023-11-21T18:57:48;102524.38;;;7.79;100.00
31062;BME280;17724;53.546;9.974;2023-11-21T19:01:49;102541.25;;;7.61;98.48
31062;BME280;17724;53.546;9.974;2023-11-21T19:05:49;102533.91;;;7.89;100.00
31062;BME280;17724;53.546;9.974;2023-11-21T19:09:50;102530.22;;;7.76;97.85
31062;BME280;17724;53.546;9.974;2023-11-21T19:13:51;102542.50;;;7.58;97.12
31062;BME280;17724;53.546;9.974;2023-11-21T19:17:53;102543.66;;;7.49;97.41
31062;BME280;17724;53.546;9.974;2023-11-21T19:21:54;102555.72;;;7.33;98.15
31062;BME280;17724;53.546;9.974;2023-11-21T19:25:54;102559.13;;;7.78;100.00
31062;BME280;17724;53.546;9.974;2023-11-21T19:29:54;102566.50;;;7.56;100.00
31062;BME280;17724;53.546;9.974;2023-11-21T19:33:55;102578.88;;;7.52;99.31
31062;BME280;17724;53.546;9.974;2023-11-21T19:37:55;102577.47;;;7.41;100.00
31062;BME280;17724;53.546;9.974;2023-11-21T19:41:57;102575.63;;;7.42;100.00
31062;BME280;17724;53.546;9.974;2023-11-21T19:45:57;102603.75;;;7.36;99.83
31062;BME280;17724;53.546;9.974;2023-11-21T19:49:59;102606.34;;;7.23;98.00
31062;BME280;17724;53.546;9.974;2023-11-21T19:54:00;102578.78;;;7.09;97.65
31062;BME280;17724;53.546;9.974;2023-11-21T19:58:00;102613.50;;;7.24;98.21
31062;BME280;17724;53.546;9.974;2023-11-21T20:02:02;102615.41;;;7.23;98.63
31062;BME280;17724;53.546;9.974;2023-11-21T20:06:03;102617.19;;;7.31;99.46
31062;BME280;17724;53.546;9.974;2023-11-21T20:10:05;102614.84;;;7.13;99.21
31062;BME280;17724;53.546;9.974;2023-11-21T20:14:07;102623.13;;;7.34;100.00
31062;BME280;17724;53.546;9.974;2023-11-21T20:18:07;102631.25;;;7.28;100.00
31062;BME280;17724;53.546;9.974;2023-11-21T20:22:08;102630.41;;;6.98;99.59
31062;BME280;17724;53.546;9.974;2023-11-21T20:26:08;102639.09;;;7.16;100.00
31062;BME280;17724;53.546;9.974;2023-11-21T20:30:09;102657.50;;;7.22;100.00
31062;BME280;17724;53.546;9.974;2023-11-21T20:34:10;102648.34;;;7.00;99.11
31062;BME280;17724;53.546;9.974;2023-11-21T20:38:10;102663.25;;;7.12;99.02
31062;BME280;17724;53.546;9.974;2023-11-21T20:42:14;102662.59;;;6.81;99.85
31062;BME280;17724;53.546;9.974;2023-11-21T20:46:15;102665.72;;;7.07;100.00
31062;BME280;17724;53.546;9.974;2023-11-21T20:50:16;102675.41;;;6.80;99.18
31062;BME280;17724;53.546;9.974;2023-11-21T20:54:17;102680.22;;;6.93;99.85
31062;BME280;17724;53.546;9.974;2023-11-21T20:58:18;102680.69;;;6.97;98.70
31062;BME280;17724;53.546;9.974;2023-11-21T21:02:18;102693.06;;;7.07;99.78
31062;BME280;17724;53.546;9.974;2023-11-21T21:06:19;102702.69;;;7.03;98.74
31062;BME280;17724;53.546;9.974;2023-11-21T21:10:22;102698.44;;;7.01;98.15
31062;BME280;17724;53.546;9.974;2023-11-21T21:14:22;102697.75;;;6.69;98.44
31062;BME280;17724;53.546;9.974;2023-11-21T21:18:26;102702.69;;;7.03;99.41
31062;BME280;17724;53.546;9.974;2023-11-21T21:22:27;102709.84;;;6.89;100.00